Time;durP1;ratioP1;P1;durP2;ratioP2;P2;SDS_P1;SDS_P2;PMS_P1;PMS_P2;Temp;Humidity;BMP_temperature;BMP_pressure;BME280_temperature;BME280_humidity;BME280_pressure;Samples;Min_cycle;Max_cycle;Signal;HPM_P1;HPM_P2
2023/02/11 00:00:53;;;;;;;22.53;17.50;;;;;;;;;;5024825;28;20177;-55
2023/02/11 00:03:19;;;;;;;22.63;17.80;;;;;;;;;;5026843;28;20255;-54
2023/02/11 00:05:45;;;;;;;23.67;17.70;;;;;;;;;;5022999;28;20627;-55
2023/02/11 00:08:15;;;;;;;21.73;17.60;;;;;;;;;;5015857;28;20235;-54
2023/02/11 00:10:45;;;;;;;21.57;17.93;;;;;;;;;;5021643;28;20657;-54
2023/02/11 00:13:11;;;;;;;27.13;17.00;;;;;;;;;;5023741;28;20201;-54
2023/02/11 00:15:37;;;;;;;24.97;18.73;;;;;;;;;;5021117;28;20228;-54
2023/02/11 00:18:03;;;;;;;23.53;16.90;;;;;;;;;;5022807;28;20182;-54
2023/02/11 00:20:29;;;;;;;21.73;17.70;;;;;;;;;;5016094;28;20269;-54
2023/02/11 00:22:55;;;;;;;21.20;16.03;;;;;;;;;;5022975;28;20600;-54
2023/02/11 00:25:21;;;;;;;20.63;15.70;;;;;;;;;;5023877;28;20269;-54
2023/02/11 00:27:47;;;;;;;21.03;15.67;;;;;;;;;;5019540;28;20729;-54
2023/02/11 00:30:13;;;;;;;29.20;16.93;;;;;;;;;;5026151;28;20292;-54
2023/02/11 00:32:41;;;;;;;20.30;16.47;;;;;;;;;;5020090;28;20186;-54
2023/02/11 00:35:07;;;;;;;21.07;16.20;;;;;;;;;;5021141;28;20179;-54
2023/02/11 00:37:35;;;;;;;21.33;17.00;;;;;;;;;;5018719;28;20178;-54
2023/02/11 00:40:01;;;;;;;21.27;15.77;;;;;;;;;;5017914;28;20704;-54
2023/02/11 00:42:27;;;;;;;20.53;16.10;;;;;;;;;;5018744;28;20204;-54
2023/02/11 00:44:53;;;;;;;20.27;15.83;;;;;;;;;;5020694;28;20186;-54
2023/02/11 00:47:19;;;;;;;21.53;15.63;;;;;;;;;;5020912;28;20630;-54
2023/02/11 00:49:45;;;;;;;20.87;15.53;;;;;;;;;;5021584;28;20222;-54
2023/02/11 00:52:11;;;;;;;19.67;15.10;;;;;;;;;;5024822;28;20531;-53
2023/02/11 00:54:37;;;;;;;21.27;15.57;;;;;;;;;;5021581;28;20178;-54
2023/02/11 00:57:04;;;;;;;23.23;15.33;;;;;;;;;;5022116;28;20301;-54
2023/02/11 00:59:30;;;;;;;18.63;14.23;;;;;;;;;;5015093;28;20179;-54
2023/02/11 01:01:56;;;;;;;20.77;15.33;;;;;;;;;;5019825;28;20240;-54
2023/02/11 01:04:22;;;;;;;18.77;15.43;;;;;;;;;;5020170;28;20179;-54
2023/02/11 01:06:48;;;;;;;22.70;16.27;;;;;;;;;;5018216;28;20228;-53
2023/02/11 01:09:14;;;;;;;20.43;15.53;;;;;;;;;;5022745;28;20188;-54
2023/02/11 01:11:40;;;;;;;18.67;14.70;;;;;;;;;;5021123;28;20213;-55
2023/02/11 01:14:06;;;;;;;19.43;15.40;;;;;;;;;;5024202;28;20193;-54
2023/02/11 01:16:32;;;;;;;21.57;14.97;;;;;;;;;;5018075;28;20190;-54
2023/02/11 01:18:58;;;;;;;18.63;14.43;;;;;;;;;;5022120;28;20190;-54
2023/02/11 01:21:25;;;;;;;22.77;15.37;;;;;;;;;;5017659;28;20187;-54
2023/02/11 01:23:51;;;;;;;24.23;15.70;;;;;;;;;;5020058;28;20269;-54
2023/02/11 01:26:17;;;;;;;18.10;14.67;;;;;;;;;;5015035;28;20194;-54
2023/02/11 01:28:43;;;;;;;21.93;15.73;;;;;;;;;;5021263;28;20185;-54
2023/02/11 01:31:09;;;;;;;18.20;15.47;;;;;;;;;;5023224;28;20239;-54
2023/02/11 01:33:35;;;;;;;18.67;15.37;;;;;;;;;;5019352;28;20187;-54
2023/02/11 01:36:04;;;;;;;24.17;15.77;;;;;;;;;;5022484;28;20174;-54
2023/02/11 01:38:31;;;;;;;17.83;14.93;;;;;;;;;;5027945;28;20574;-54
2023/02/11 01:40:58;;;;;;;21.53;15.07;;;;;;;;;;5017879;28;20269;-54
2023/02/11 01:43:26;;;;;;;24.03;15.00;;;;;;;;;;5026148;28;20193;-54
2023/02/11 01:45:55;;;;;;;20.27;14.40;;;;;;;;;;5023434;28;20189;-54
2023/02/11 01:48:29;;;;;;;18.70;13.93;;;;;;;;;;5021707;28;20185;-54
2023/02/11 01:50:58;;;;;;;18.40;14.07;;;;;;;;;;5019502;28;20209;-54
2023/02/11 01:58:58;;;;;;;20.63;15.10;;;;;;;;;;5018329;28;20185;-54
2023/02/11 02:01:26;;;;;;;21.57;14.70;;;;;;;;;;5016325;28;20178;-54
2023/02/11 02:03:54;;;;;;;20.13;14.60;;;;;;;;;;5015069;28;20264;-54
2023/02/11 02:06:24;;;;;;;21.23;14.60;;;;;;;;;;5020707;28;20612;-54
2023/02/11 02:08:56;;;;;;;16.53;12.67;;;;;;;;;;5019222;28;20219;-54
2023/02/11 02:11:22;;;;;;;20.70;14.53;;;;;;;;;;5018934;28;20672;-54
2023/02/11 02:13:48;;;;;;;18.50;13.00;;;;;;;;;;5019940;28;20217;-54
2023/02/11 02:16:51;;;;;;;17.30;13.13;;;;;;;;;;5017905;28;20197;-55
2023/02/11 02:19:36;;;;;;;19.20;14.50;;;;;;;;;;5015677;28;20194;-54
2023/02/11 02:22:09;;;;;;;19.27;14.47;;;;;;;;;;5015210;28;20265;-55
2023/02/11 02:24:55;;;;;;;20.80;13.27;;;;;;;;;;5026508;28;20784;-54
2023/02/11 02:27:24;;;;;;;22.20;14.73;;;;;;;;;;5021832;28;20178;-54
2023/02/11 02:30:13;;;;;;;20.13;14.27;;;;;;;;;;5022871;28;20207;-54
2023/02/11 02:32:57;;;;;;;21.63;14.30;;;;;;;;;;5018409;28;20178;-54
2023/02/11 02:35:42;;;;;;;15.47;12.83;;;;;;;;;;5023916;28;20174;-54
2023/02/11 02:38:13;;;;;;;17.23;13.70;;;;;;;;;;5019234;28;20545;-54
2023/02/11 02:40:49;;;;;;;15.43;13.23;;;;;;;;;;5018379;28;20233;-54
2023/02/11 02:43:16;;;;;;;17.53;13.70;;;;;;;;;;5019782;28;20354;-54
2023/02/11 02:45:42;;;;;;;19.07;14.17;;;;;;;;;;5019952;28;20547;-54
2023/02/11 02:48:22;;;;;;;20.53;12.63;;;;;;;;;;5016756;28;20640;-54
2023/02/11 02:50:49;;;;;;;17.00;13.87;;;;;;;;;;5020520;28;20232;-54
2023/02/11 02:53:21;;;;;;;19.83;14.17;;;;;;;;;;5018384;28;20525;-54
2023/02/11 02:56:04;;;;;;;17.43;13.03;;;;;;;;;;5022529;28;20690;-54
2023/02/11 02:58:30;;;;;;;20.10;14.10;;;;;;;;;;5021987;28;21248;-54
2023/02/11 03:01:05;;;;;;;20.33;14.10;;;;;;;;;;5020316;28;20267;-54
2023/02/11 03:03:55;;;;;;;20.37;14.53;;;;;;;;;;5017798;28;20567;-54
2023/02/11 03:06:31;;;;;;;20.07;13.73;;;;;;;;;;5018665;28;20225;-54
2023/02/11 03:08:57;;;;;;;24.67;13.77;;;;;;;;;;5020431;28;20588;-54
2023/02/11 03:11:24;;;;;;;17.67;12.50;;;;;;;;;;5022965;28;20210;-54
2023/02/11 03:13:50;;;;;;;18.17;13.70;;;;;;;;;;5020866;28;20256;-54
2023/02/11 03:16:22;;;;;;;17.07;12.03;;;;;;;;;;5015655;28;20182;-54
2023/02/11 03:18:50;;;;;;;18.50;13.27;;;;;;;;;;5023318;28;20236;-54
2023/02/11 03:21:17;;;;;;;17.43;12.23;;;;;;;;;;5016057;28;20195;-54
2023/02/11 03:24:04;;;;;;;14.67;11.97;;;;;;;;;;5016408;28;20185;-55
2023/02/11 03:26:34;;;;;;;19.57;12.93;;;;;;;;;;5011733;28;20186;-54
2023/02/11 03:29:18;;;;;;;18.67;12.97;;;;;;;;;;5021216;28;20675;-54
2023/02/11 03:32:03;;;;;;;19.33;14.20;;;;;;;;;;5018418;28;20202;-54
2023/02/11 03:34:47;;;;;;;16.77;11.73;;;;;;;;;;5018116;28;20177;-54
2023/02/11 03:37:15;;;;;;;17.67;13.13;;;;;;;;;;5027166;28;20182;-54
2023/02/11 03:39:47;;;;;;;20.20;13.23;;;;;;;;;;5024212;28;20289;-54
2023/02/11 03:42:14;;;;;;;21.43;13.60;;;;;;;;;;5022904;28;20637;-54
2023/02/11 03:44:43;;;;;;;20.37;13.40;;;;;;;;;;5024050;28;20178;-54
2023/02/11 03:47:10;;;;;;;18.27;11.93;;;;;;;;;;5025369;28;20179;-54
2023/02/11 03:49:38;;;;;;;17.17;11.93;;;;;;;;;;5025762;28;20680;-54
2023/02/11 03:52:05;;;;;;;16.37;12.10;;;;;;;;;;5024549;28;20257;-54
2023/02/11 03:54:31;;;;;;;15.67;11.87;;;;;;;;;;5021352;28;20329;-54
2023/02/11 03:56:58;;;;;;;19.57;13.23;;;;;;;;;;5029188;28;20205;-54
2023/02/11 03:59:25;;;;;;;18.13;12.23;;;;;;;;;;5021406;28;20174;-54
2023/02/11 04:01:51;;;;;;;13.43;11.63;;;;;;;;;;5020970;28;20244;-54
2023/02/11 04:04:17;;;;;;;15.57;11.73;;;;;;;;;;5025114;28;20230;-54
2023/02/11 04:06:43;;;;;;;19.07;11.90;;;;;;;;;;5021025;28;20258;-54
2023/02/11 04:09:10;;;;;;;15.63;12.63;;;;;;;;;;5023947;28;20204;-54
2023/02/11 04:11:36;;;;;;;20.03;13.30;;;;;;;;;;5018441;28;20668;-54
2023/02/11 04:14:02;;;;;;;17.97;13.10;;;;;;;;;;5021253;28;20265;-54
2023/02/11 04:16:29;;;;;;;22.27;14.03;;;;;;;;;;5021487;28;20622;-54
2023/02/11 04:18:55;;;;;;;14.50;11.70;;;;;;;;;;5017834;28;20206;-54
2023/02/11 04:21:21;;;;;;;20.30;13.73;;;;;;;;;;5021716;28;20187;-54
2023/02/11 04:23:48;;;;;;;18.97;13.00;;;;;;;;;;5027456;28;20209;-55
2023/02/11 04:26:14;;;;;;;17.00;12.40;;;;;;;;;;5017172;28;20191;-54
2023/02/11 04:28:40;;;;;;;21.20;13.13;;;;;;;;;;5019560;28;20223;-53
2023/02/11 04:31:06;;;;;;;19.77;13.63;;;;;;;;;;5026053;28;20205;-54
2023/02/11 04:33:32;;;;;;;20.93;13.03;;;;;;;;;;5026003;28;20535;-55
2023/02/11 04:35:58;;;;;;;18.70;13.83;;;;;;;;;;5021258;28;20178;-54
2023/02/11 04:38:24;;;;;;;20.93;14.00;;;;;;;;;;5025822;28;20278;-54
2023/02/11 04:40:50;;;;;;;19.40;13.27;;;;;;;;;;5026347;28;20178;-54
2023/02/11 04:43:16;;;;;;;21.97;13.40;;;;;;;;;;5028569;28;20190;-54
2023/02/11 04:45:42;;;;;;;17.30;12.77;;;;;;;;;;5026470;28;20177;-54
2023/02/11 04:48:08;;;;;;;19.93;13.50;;;;;;;;;;5017229;28;20178;-54
2023/02/11 04:50:34;;;;;;;21.27;14.07;;;;;;;;;;5018271;28;20201;-54
2023/02/11 04:53:00;;;;;;;19.00;13.23;;;;;;;;;;5023522;28;20197;-54
2023/02/11 04:55:26;;;;;;;18.77;13.33;;;;;;;;;;5021275;28;20209;-54
2023/02/11 04:57:54;;;;;;;23.00;14.93;;;;;;;;;;5017356;28;20174;-54
2023/02/11 05:00:20;;;;;;;23.53;13.80;;;;;;;;;;5022620;28;20185;-54
2023/02/11 05:02:46;;;;;;;19.63;14.93;;;;;;;;;;5022981;28;20233;-54
2023/02/11 05:05:12;;;;;;;25.40;14.80;;;;;;;;;;5019079;28;20281;-55
2023/02/11 05:07:38;;;;;;;21.40;14.47;;;;;;;;;;5023907;28;20181;-54
2023/02/11 05:10:04;;;;;;;20.00;15.67;;;;;;;;;;5020936;28;20206;-54
2023/02/11 05:12:30;;;;;;;25.97;16.77;;;;;;;;;;5020200;28;20194;-54
2023/02/11 05:14:56;;;;;;;19.73;15.50;;;;;;;;;;5020356;28;20209;-54
2023/02/11 05:17:22;;;;;;;26.07;15.27;;;;;;;;;;5028203;28;20609;-54
2023/02/11 05:19:48;;;;;;;27.67;16.90;;;;;;;;;;5020197;28;20190;-54
2023/02/11 05:22:14;;;;;;;20.97;15.13;;;;;;;;;;5021218;28;20201;-54
2023/02/11 05:24:40;;;;;;;28.23;16.57;;;;;;;;;;5021972;28;20205;-54
2023/02/11 05:27:06;;;;;;;32.37;17.67;;;;;;;;;;5020996;28;20217;-54
2023/02/11 05:29:32;;;;;;;25.43;16.33;;;;;;;;;;5024126;28;20189;-54
2023/02/11 05:31:59;;;;;;;22.33;16.83;;;;;;;;;;5025109;28;20594;-54
2023/02/11 05:34:25;;;;;;;26.23;15.30;;;;;;;;;;5020086;28;20174;-54
2023/02/11 05:36:51;;;;;;;26.70;14.57;;;;;;;;;;5026025;28;20285;-53
2023/02/11 05:39:17;;;;;;;21.27;16.30;;;;;;;;;;5025533;28;20272;-54
2023/02/11 05:41:43;;;;;;;19.97;15.57;;;;;;;;;;5019651;28;20189;-55
2023/02/11 05:44:09;;;;;;;23.03;15.53;;;;;;;;;;5016929;28;20240;-54
2023/02/11 05:46:35;;;;;;;22.90;16.70;;;;;;;;;;5026560;28;20184;-54
2023/02/11 05:49:01;;;;;;;20.67;14.87;;;;;;;;;;5024373;28;20576;-54
2023/02/11 05:51:27;;;;;;;23.30;16.50;;;;;;;;;;5024623;28;20228;-54
2023/02/11 05:53:54;;;;;;;24.77;16.03;;;;;;;;;;5021061;28;20177;-54
2023/02/11 05:56:20;;;;;;;23.10;15.60;;;;;;;;;;5016944;28;20677;-54
2023/02/11 05:58:46;;;;;;;19.37;15.43;;;;;;;;;;5020999;28;20189;-54
2023/02/11 06:01:12;;;;;;;22.13;16.37;;;;;;;;;;5017091;28;20186;-54
2023/02/11 06:03:38;;;;;;;29.23;16.63;;;;;;;;;;5019315;28;20245;-54
2023/02/11 06:06:04;;;;;;;20.73;15.93;;;;;;;;;;5016908;28;20189;-54
2023/02/11 06:08:30;;;;;;;22.30;16.17;;;;;;;;;;5018938;28;20193;-54
2023/02/11 06:10:56;;;;;;;20.83;15.43;;;;;;;;;;5014779;28;20264;-54
2023/02/11 06:13:22;;;;;;;22.07;15.47;;;;;;;;;;5020226;28;20644;-55
2023/02/11 06:15:55;;;;;;;21.47;15.30;;;;;;;;;;5017698;28;20178;-54
2023/02/11 06:18:21;;;;;;;25.97;16.20;;;;;;;;;;5012700;28;20187;-54
2023/02/11 06:20:47;;;;;;;23.63;16.30;;;;;;;;;;5021703;28;20173;-55
2023/02/11 06:23:13;;;;;;;29.60;15.73;;;;;;;;;;5019494;28;20240;-54
2023/02/11 06:25:39;;;;;;;21.60;15.80;;;;;;;;;;5024044;28;20181;-54
2023/02/11 06:28:05;;;;;;;28.17;15.53;;;;;;;;;;5021366;28;20200;-54
2023/02/11 06:30:31;;;;;;;25.53;16.37;;;;;;;;;;5018238;28;20255;-54
2023/02/11 06:32:57;;;;;;;20.03;15.47;;;;;;;;;;5023813;28;20361;-54
2023/02/11 06:35:23;;;;;;;20.80;15.17;;;;;;;;;;5016139;28;20294;-54
2023/02/11 06:37:52;;;;;;;24.97;15.43;;;;;;;;;;5009999;28;20748;-54
2023/02/11 06:40:18;;;;;;;25.73;16.30;;;;;;;;;;5011542;28;20170;-53
2023/02/11 06:42:44;;;;;;;26.53;16.27;;;;;;;;;;5016811;28;20189;-54
2023/02/11 06:45:12;;;;;;;23.97;15.33;;;;;;;;;;5021265;28;20243;-54
2023/02/11 06:47:38;;;;;;;24.17;16.93;;;;;;;;;;5015920;28;20578;-54
2023/02/11 06:50:05;;;;;;;25.50;17.07;;;;;;;;;;5014505;28;20214;-54
2023/02/11 06:52:31;;;;;;;26.50;16.30;;;;;;;;;;5014799;28;20188;-54
2023/02/11 06:54:57;;;;;;;27.70;15.97;;;;;;;;;;5019008;28;20189;-54
2023/02/11 06:57:23;;;;;;;28.83;16.97;;;;;;;;;;5012140;28;20533;-54
2023/02/11 06:59:49;;;;;;;27.03;15.93;;;;;;;;;;5018543;28;20178;-54
2023/02/11 07:02:15;;;;;;;23.70;16.00;;;;;;;;;;5018704;28;20228;-54
2023/02/11 07:04:41;;;;;;;25.53;14.93;;;;;;;;;;5013487;28;20209;-54
2023/02/11 07:07:07;;;;;;;27.13;15.67;;;;;;;;;;5015383;28;20190;-54
2023/02/11 07:09:33;;;;;;;25.17;15.43;;;;;;;;;;5011933;28;20579;-54
2023/02/11 07:11:59;;;;;;;29.73;16.57;;;;;;;;;;5014313;28;20190;-54
2023/02/11 07:14:25;;;;;;;24.43;15.67;;;;;;;;;;5017914;28;20251;-54
2023/02/11 07:16:51;;;;;;;28.77;16.93;;;;;;;;;;5020666;28;20284;-54
2023/02/11 07:19:17;;;;;;;31.07;17.23;;;;;;;;;;5018273;28;20205;-54
2023/02/11 07:21:43;;;;;;;30.93;16.83;;;;;;;;;;5018224;28;20182;-54
2023/02/11 07:24:09;;;;;;;26.70;16.87;;;;;;;;;;5017158;28;20182;-54
2023/02/11 07:26:36;;;;;;;26.63;15.90;;;;;;;;;;5021053;28;20232;-55
2023/02/11 07:29:02;;;;;;;28.10;16.87;;;;;;;;;;5017682;28;20170;-54
2023/02/11 07:31:29;;;;;;;29.07;16.77;;;;;;;;;;5021294;28;20685;-54
2023/02/11 07:33:58;;;;;;;26.83;16.67;;;;;;;;;;5026679;28;20205;-54
2023/02/11 07:36:25;;;;;;;29.93;17.50;;;;;;;;;;5022432;28;20239;-54
2023/02/11 07:38:51;;;;;;;30.23;17.80;;;;;;;;;;5015874;28;20173;-54
2023/02/11 07:41:19;;;;;;;24.43;15.03;;;;;;;;;;5015970;28;20182;-54
2023/02/11 07:43:45;;;;;;;23.47;16.30;;;;;;;;;;5021829;28;20178;-54
2023/02/11 07:46:21;;;;;;;26.63;17.57;;;;;;;;;;5027223;28;20182;-54
2023/02/11 07:48:48;;;;;;;32.40;16.70;;;;;;;;;;5018942;28;20178;-55
2023/02/11 07:51:18;;;;;;;26.53;16.57;;;;;;;;;;5022949;28;20259;-54
2023/02/11 07:53:45;;;;;;;31.80;17.33;;;;;;;;;;5027195;28;20186;-54
2023/02/11 07:56:12;;;;;;;27.30;16.10;;;;;;;;;;5030146;28;20208;-54
2023/02/11 07:58:38;;;;;;;30.80;16.37;;;;;;;;;;5027198;28;20188;-54
2023/02/11 08:01:07;;;;;;;25.77;17.20;;;;;;;;;;5019901;28;20250;-54
2023/02/11 08:03:34;;;;;;;30.97;17.20;;;;;;;;;;5022275;28;20226;-54
2023/02/11 08:06:07;;;;;;;29.77;16.87;;;;;;;;;;5013433;28;20716;-54
2023/02/11 08:08:33;;;;;;;30.23;16.67;;;;;;;;;;5020462;28;20197;-54
2023/02/11 08:11:04;;;;;;;28.73;16.67;;;;;;;;;;5017188;28;20293;-54
2023/02/11 08:13:30;;;;;;;32.63;17.83;;;;;;;;;;5018445;28;20185;-54
2023/02/11 08:15:57;;;;;;;29.77;17.23;;;;;;;;;;5021927;28;20178;-54
2023/02/11 08:18:23;;;;;;;32.30;17.97;;;;;;;;;;5022055;28;20177;-54
2023/02/11 08:20:49;;;;;;;33.97;18.13;;;;;;;;;;5024853;28;20228;-55
2023/02/11 08:23:15;;;;;;;30.20;16.80;;;;;;;;;;5026793;28;20182;-54
2023/02/11 08:25:41;;;;;;;28.47;17.00;;;;;;;;;;5016868;28;20186;-54
2023/02/11 08:28:08;;;;;;;29.67;18.40;;;;;;;;;;5014436;28;20222;-55
2023/02/11 08:30:34;;;;;;;33.03;17.10;;;;;;;;;;5016632;28;20204;-54
2023/02/11 08:33:03;;;;;;;28.57;16.83;;;;;;;;;;5022582;28;20321;-54
2023/02/11 08:35:29;;;;;;;30.03;18.43;;;;;;;;;;5020027;28;20201;-54
2023/02/11 08:37:55;;;;;;;35.17;20.77;;;;;;;;;;5021672;28;20534;-55
2023/02/11 08:40:21;;;;;;;35.27;19.37;;;;;;;;;;5018347;28;20253;-55
2023/02/11 08:42:47;;;;;;;34.37;20.00;;;;;;;;;;5017328;28;20267;-55
2023/02/11 08:45:13;;;;;;;37.30;22.63;;;;;;;;;;5020340;28;20270;-54
2023/02/11 08:47:40;;;;;;;35.97;22.63;;;;;;;;;;5015251;28;20544;-54
2023/02/11 08:50:06;;;;;;;33.70;21.20;;;;;;;;;;5015180;28;20202;-55
2023/02/11 08:52:32;;;;;;;33.03;20.83;;;;;;;;;;5023221;28;20676;-54
2023/02/11 08:54:58;;;;;;;36.70;21.10;;;;;;;;;;5023140;28;20613;-55
2023/02/11 08:57:24;;;;;;;36.07;22.70;;;;;;;;;;5024387;28;20587;-55
2023/02/11 08:59:50;;;;;;;46.00;24.20;;;;;;;;;;5023452;28;20233;-54
2023/02/11 09:02:16;;;;;;;38.93;24.87;;;;;;;;;;5020685;28;20222;-55
2023/02/11 09:04:42;;;;;;;44.93;26.80;;;;;;;;;;5023477;28;20174;-55
2023/02/11 09:07:08;;;;;;;40.70;25.67;;;;;;;;;;5018338;28;20182;-55
2023/02/11 09:09:34;;;;;;;37.23;23.50;;;;;;;;;;5023682;28;20208;-54
2023/02/11 09:12:00;;;;;;;41.13;23.67;;;;;;;;;;5015033;28;20205;-55
2023/02/11 09:14:27;;;;;;;36.83;23.77;;;;;;;;;;5015267;28;20216;-55
2023/02/11 09:16:53;;;;;;;40.83;24.73;;;;;;;;;;5023764;28;20178;-55
2023/02/11 09:19:19;;;;;;;42.33;24.47;;;;;;;;;;5023498;28;20182;-55
2023/02/11 09:21:45;;;;;;;38.80;23.73;;;;;;;;;;5018777;28;20185;-55
2023/02/11 09:24:11;;;;;;;42.47;24.73;;;;;;;;;;5020885;28;20208;-55
2023/02/11 09:26:38;;;;;;;41.30;24.70;;;;;;;;;;5021812;28;20174;-55
2023/02/11 09:29:04;;;;;;;34.40;22.33;;;;;;;;;;5013992;28;20213;-54
2023/02/11 09:31:31;;;;;;;40.80;23.77;;;;;;;;;;5011749;28;20676;-54
2023/02/11 09:33:59;;;;;;;43.50;24.43;;;;;;;;;;5023534;28;20652;-55
2023/02/11 09:36:27;;;;;;;42.93;26.00;;;;;;;;;;5027326;28;20635;-55
2023/02/11 09:38:53;;;;;;;38.70;25.47;;;;;;;;;;5031652;28;20264;-55
2023/02/11 09:41:22;;;;;;;43.07;26.37;;;;;;;;;;5017178;28;20186;-55
2023/02/11 09:43:50;;;;;;;38.00;24.50;;;;;;;;;;5017712;28;20189;-54
2023/02/11 09:46:17;;;;;;;39.70;24.17;;;;;;;;;;5017699;28;20626;-55
2023/02/11 09:48:45;;;;;;;33.93;20.83;;;;;;;;;;5022686;28;20170;-55
2023/02/11 09:51:30;;;;;;;35.30;20.93;;;;;;;;;;5021579;28;20293;-55
2023/02/11 09:53:57;;;;;;;42.33;21.10;;;;;;;;;;5022357;28;20188;-55
2023/02/11 09:56:24;;;;;;;31.73;20.13;;;;;;;;;;5025007;28;20210;-55
2023/02/11 09:58:50;;;;;;;32.60;20.90;;;;;;;;;;5020190;28;20707;-55
2023/02/11 10:01:27;;;;;;;30.97;21.07;;;;;;;;;;5020308;28;20187;-55
2023/02/11 10:04:06;;;;;;;31.03;20.40;;;;;;;;;;5016014;28;20716;-55
2023/02/11 10:06:32;;;;;;;37.33;23.07;;;;;;;;;;5015581;28;20208;-54
2023/02/11 10:09:04;;;;;;;31.70;22.57;;;;;;;;;;5024568;28;20202;-55
2023/02/11 10:11:49;;;;;;;35.37;22.67;;;;;;;;;;5005401;28;20209;-56
2023/02/11 10:14:15;;;;;;;38.07;23.13;;;;;;;;;;5023931;28;20272;-55
2023/02/11 10:16:41;;;;;;;31.50;21.13;;;;;;;;;;5014626;28;20194;-55
2023/02/11 10:19:25;;;;;;;37.17;20.83;;;;;;;;;;5021733;28;20201;-55
2023/02/11 10:22:03;;;;;;;32.27;20.33;;;;;;;;;;5023288;28;20177;-55
2023/02/11 10:24:29;;;;;;;35.60;21.63;;;;;;;;;;5023118;28;20201;-55
2023/02/11 10:26:55;;;;;;;33.43;20.60;;;;;;;;;;5022369;28;20185;-55
2023/02/11 10:29:25;;;;;;;33.63;21.37;;;;;;;;;;5001463;28;20650;-55
2023/02/11 10:31:51;;;;;;;39.30;23.73;;;;;;;;;;5018547;28;20293;-55
2023/02/11 10:34:17;;;;;;;38.33;21.47;;;;;;;;;;5020331;28;20186;-55
2023/02/11 10:36:44;;;;;;;37.77;22.47;;;;;;;;;;5015623;28;20174;-55
2023/02/11 10:39:28;;;;;;;40.20;21.80;;;;;;;;;;5021902;28;20189;-55
2023/02/11 10:41:56;;;;;;;35.97;22.30;;;;;;;;;;5011519;28;20213;-55
2023/02/11 10:44:25;;;;;;;37.93;21.37;;;;;;;;;;5026346;28;20676;-55
2023/02/11 10:46:51;;;;;;;32.83;20.97;;;;;;;;;;5026360;28;20213;-55
2023/02/11 10:49:38;;;;;;;38.37;22.63;;;;;;;;;;5028931;28;20289;-55
2023/02/11 10:52:13;;;;;;;36.83;24.37;;;;;;;;;;5027905;28;20204;-55
2023/02/11 10:54:39;;;;;;;41.93;24.47;;;;;;;;;;5038022;28;20164;-55
2023/02/11 10:57:06;;;;;;;34.73;22.83;;;;;;;;;;5026849;28;20756;-55
2023/02/11 10:59:39;;;;;;;45.47;25.70;;;;;;;;;;5016452;28;20174;-55
2023/02/11 11:02:30;;;;;;;37.53;23.23;;;;;;;;;;5032908;28;20217;-55
2023/02/11 11:04:57;;;;;;;42.90;23.87;;;;;;;;;;5015006;28;20284;-55
2023/02/11 11:07:26;;;;;;;39.43;24.13;;;;;;;;;;5027677;28;20632;-55
2023/02/11 11:09:54;;;;;;;41.67;25.40;;;;;;;;;;5024913;28;20541;-55
2023/02/11 11:12:43;;;;;;;41.57;23.90;;;;;;;;;;5020902;28;20637;-55
2023/02/11 11:15:09;;;;;;;40.60;25.47;;;;;;;;;;5013596;28;20194;-55
2023/02/11 11:17:35;;;;;;;43.83;26.57;;;;;;;;;;5019774;28;20188;-55
2023/02/11 11:20:13;;;;;;;47.27;25.37;;;;;;;;;;5025077;28;20185;-55
2023/02/11 11:22:40;;;;;;;38.50;25.03;;;;;;;;;;5025337;28;20213;-55
2023/02/11 11:25:19;;;;;;;41.17;24.47;;;;;;;;;;5019212;28;20277;-55
2023/02/11 11:27:48;;;;;;;38.80;23.83;;;;;;;;;;5026803;28;20563;-55
2023/02/11 11:30:16;;;;;;;42.23;23.80;;;;;;;;;;5024898;28;20205;-55
2023/02/11 11:32:42;;;;;;;37.90;23.57;;;;;;;;;;5016663;28;20174;-55
2023/02/11 11:35:20;;;;;;;39.07;24.17;;;;;;;;;;5021998;28;20178;-55
2023/02/11 11:37:52;;;;;;;39.87;23.63;;;;;;;;;;5017826;28;20178;-55
2023/02/11 11:40:28;;;;;;;42.60;24.57;;;;;;;;;;5022503;28;20598;-55
2023/02/11 11:43:03;;;;;;;44.57;25.87;;;;;;;;;;5028698;28;20212;-55
2023/02/11 11:45:29;;;;;;;41.90;24.30;;;;;;;;;;5022257;28;20656;-55
2023/02/11 11:48:01;;;;;;;42.77;27.13;;;;;;;;;;5020827;28;20197;-56
2023/02/11 11:50:30;;;;;;;44.67;25.33;;;;;;;;;;5027559;28;20284;-55
2023/02/11 11:53:20;;;;;;;43.03;24.33;;;;;;;;;;5025609;28;20184;-55
2023/02/11 11:56:06;;;;;;;40.30;26.03;;;;;;;;;;5007310;28;20224;-55
2023/02/11 11:58:32;;;;;;;39.10;24.97;;;;;;;;;;5022523;28;20702;-55
2023/02/11 12:01:15;;;;;;;41.77;25.73;;;;;;;;;;5025277;28;20186;-54
2023/02/11 12:03:53;;;;;;;39.97;26.13;;;;;;;;;;5017244;28;20308;-55
2023/02/11 12:06:38;;;;;;;45.63;25.43;;;;;;;;;;5023300;28;20661;-55
2023/02/11 12:09:24;;;;;;;42.17;25.83;;;;;;;;;;5025533;28;20633;-54
2023/02/11 12:12:09;;;;;;;43.73;26.67;;;;;;;;;;5030528;28;20618;-55
2023/02/11 12:14:43;;;;;;;41.70;24.77;;;;;;;;;;5026825;28;20218;-55
2023/02/11 12:17:27;;;;;;;38.43;25.00;;;;;;;;;;5019755;28;20236;-54
2023/02/11 12:19:56;;;;;;;37.53;24.13;;;;;;;;;;5014491;28;20218;-55
2023/02/11 12:22:22;;;;;;;40.07;24.60;;;;;;;;;;5013944;28;20163;-55
2023/02/11 12:25:11;;;;;;;39.43;23.87;;;;;;;;;;5020582;28;20174;-55
2023/02/11 12:27:44;;;;;;;37.97;25.20;;;;;;;;;;5004878;28;20275;-55
2023/02/11 12:30:29;;;;;;;41.77;24.73;;;;;;;;;;5019669;28;20206;-55
2023/02/11 12:33:04;;;;;;;45.13;24.37;;;;;;;;;;5016089;28;20162;-55
2023/02/11 12:35:32;;;;;;;35.17;24.20;;;;;;;;;;5021653;28;20227;-55
2023/02/11 12:38:05;;;;;;;36.40;23.47;;;;;;;;;;5017662;28;20224;-55
2023/02/11 12:40:49;;;;;;;36.60;22.77;;;;;;;;;;5021588;28;20210;-55
2023/02/11 12:43:29;;;;;;;35.60;23.53;;;;;;;;;;5013856;28;20190;-55
2023/02/11 12:46:11;;;;;;;39.47;24.97;;;;;;;;;;5016658;28;20178;-55
2023/02/11 12:48:56;;;;;;;35.23;23.37;;;;;;;;;;5021975;28;20209;-55
2023/02/11 12:51:44;;;;;;;36.90;24.10;;;;;;;;;;5012839;28;20333;-55
2023/02/11 12:54:16;;;;;;;35.37;23.60;;;;;;;;;;5021339;28;20173;-55
2023/02/11 12:57:00;;;;;;;34.67;23.17;;;;;;;;;;5024254;28;20195;-55
2023/02/11 12:59:45;;;;;;;40.00;23.50;;;;;;;;;;5025978;28;20218;-55
2023/02/11 13:02:18;;;;;;;42.43;24.97;;;;;;;;;;5020616;28;20200;-55
2023/02/11 13:04:49;;;;;;;38.07;24.10;;;;;;;;;;5012757;28;20202;-55
2023/02/11 13:07:19;;;;;;;38.13;23.47;;;;;;;;;;5012878;28;20197;-55
2023/02/11 13:09:48;;;;;;;33.83;22.50;;;;;;;;;;5020092;28;20178;-54
2023/02/11 13:15:04;;;;;;;31.77;21.53;;;;;;;;;;5012866;28;20177;-55
2023/02/11 13:17:34;;;;;;;34.57;22.90;;;;;;;;;;5019213;28;20190;-55
2023/02/11 13:20:05;;;;;;;36.60;22.87;;;;;;;;;;5017107;28;20189;-55
2023/02/11 13:22:34;;;;;;;38.07;24.20;;;;;;;;;;5019199;28;20643;-55
2023/02/11 13:25:20;;;;;;;35.83;22.00;;;;;;;;;;5018378;28;20829;-54
2023/02/11 13:28:09;;;;;;;35.43;22.83;;;;;;;;;;5010462;28;20175;-55
2023/02/11 13:30:35;;;;;;;34.60;21.77;;;;;;;;;;5020477;28;20206;-55
2023/02/11 13:33:05;;;;;;;31.80;21.33;;;;;;;;;;5015197;28;20181;-54
2023/02/11 13:35:31;;;;;;;34.00;22.63;;;;;;;;;;5026889;28;20188;-54
2023/02/11 13:37:59;;;;;;;33.73;22.53;;;;;;;;;;5024903;28;20212;-55
2023/02/11 13:40:26;;;;;;;35.33;22.30;;;;;;;;;;5035614;28;20224;-55
2023/02/11 13:42:54;;;;;;;35.93;22.60;;;;;;;;;;5033333;28;20632;-56
2023/02/11 13:45:31;;;;;;;37.93;22.63;;;;;;;;;;5031320;28;20243;-55
2023/02/11 13:47:58;;;;;;;36.80;21.90;;;;;;;;;;5033138;28;20185;-55
2023/02/11 13:50:25;;;;;;;36.57;22.77;;;;;;;;;;5027635;28;20213;-55
2023/02/11 13:52:57;;;;;;;35.97;23.00;;;;;;;;;;5028242;28;20264;-55
2023/02/11 13:55:24;;;;;;;32.33;21.20;;;;;;;;;;5035644;28;20208;-55
2023/02/11 13:58:05;;;;;;;37.70;23.50;;;;;;;;;;5039374;28;20162;-55
2023/02/11 14:00:34;;;;;;;39.03;23.33;;;;;;;;;;5035345;28;20522;-54
2023/02/11 14:09:06;;;;;;;36.07;21.97;;;;;;;;;;5037491;28;20274;-55
2023/02/11 14:11:32;;;;;;;34.90;21.80;;;;;;;;;;5020208;28;20229;-55
2023/02/11 14:14:01;;;;;;;34.10;21.50;;;;;;;;;;5010481;28;20201;-55
2023/02/11 14:16:27;;;;;;;34.83;22.57;;;;;;;;;;5013336;28;20654;-55
2023/02/11 14:18:53;;;;;;;40.13;23.43;;;;;;;;;;5012835;28;20214;-55
2023/02/11 14:21:19;;;;;;;35.43;23.17;;;;;;;;;;5027310;28;20178;-55
2023/02/11 14:23:46;;;;;;;35.40;23.73;;;;;;;;;;5022034;28;20212;-55
2023/02/11 14:26:15;;;;;;;35.87;22.93;;;;;;;;;;5025288;28;20264;-55
2023/02/11 14:28:43;;;;;;;31.10;21.73;;;;;;;;;;5021661;28;20273;-55
2023/02/11 14:31:16;;;;;;;39.53;24.37;;;;;;;;;;5018990;28;20194;-54
2023/02/11 14:33:49;;;;;;;33.07;22.83;;;;;;;;;;5025697;28;20548;-55
2023/02/11 14:36:30;;;;;;;37.30;23.33;;;;;;;;;;5022377;28;20190;-55
2023/02/11 14:39:02;;;;;;;33.67;22.90;;;;;;;;;;5017959;28;20288;-54
2023/02/11 14:41:35;;;;;;;39.17;23.10;;;;;;;;;;5013212;28;20235;-54
2023/02/11 14:44:04;;;;;;;38.40;23.87;;;;;;;;;;5012548;28;20185;-55